Time;durP1;ratioP1;P1;durP2;ratioP2;P2;SDS_P1;SDS_P2;PMS_P1;PMS_P2;Temp;Humidity;BMP_temperature;BMP_pressure;BME280_temperature;BME280_humidity;BME280_pressure;Samples;Min_cycle;Max_cycle;Signal;HPM_P1;HPM_P2
2023/09/24 00:02:22;;;;;;;2.90;1.42;;;;;;;8.37;100.00;97988.78;5005394;28;20049;-61
2023/09/24 00:04:48;;;;;;;2.67;1.10;;;;;;;8.47;100.00;97999.06;5005303;28;20139;-61
2023/09/24 00:07:16;;;;;;;2.00;1.00;;;;;;;8.47;100.00;97999.06;5005908;28;20116;-62
2023/09/24 00:09:43;;;;;;;4.72;1.10;;;;;;;8.45;100.00;97998.50;5005242;28;20038;-61
2023/09/24 00:12:10;;;;;;;2.38;1.10;;;;;;;8.35;100.00;98003.56;5002357;28;20046;-61
2023/09/24 00:14:36;;;;;;;1.75;0.88;;;;;;;8.37;100.00;98007.69;5004481;28;20053;-61
2023/09/24 00:17:03;;;;;;;1.58;0.80;;;;;;;8.45;100.00;98006.59;5004422;28;20066;-62
2023/09/24 00:19:30;;;;;;;2.83;1.40;;;;;;;8.39;100.00;98010.16;5004450;28;20038;-61
2023/09/24 00:21:57;;;;;;;3.75;1.17;;;;;;;8.52;100.00;98011.91;5011612;28;20042;-62
2023/09/24 00:24:24;;;;;;;3.13;1.10;;;;;;;8.57;100.00;98009.41;5009020;28;20034;-62
2023/09/24 00:26:50;;;;;;;3.72;1.20;;;;;;;8.63;100.00;98013.94;5004844;28;20053;-61
2023/09/24 00:29:17;;;;;;;3.08;1.23;;;;;;;8.61;100.00;98013.31;5005640;28;20080;-62
2023/09/24 00:31:43;;;;;;;3.53;1.00;;;;;;;8.54;100.00;98012.53;5004696;28;20054;-62
2023/09/24 00:34:10;;;;;;;2.97;1.20;;;;;;;8.25;100.00;98017.56;5000195;28;20064;-61
2023/09/24 00:36:37;;;;;;;3.70;1.38;;;;;;;8.21;100.00;98022.56;5003560;28;20058;-62
2023/09/24 00:39:04;;;;;;;3.75;1.23;;;;;;;8.17;100.00;98027.56;5003292;28;20054;-60
2023/09/24 00:41:31;;;;;;;3.22;1.33;;;;;;;8.33;100.00;98025.34;5004761;28;20054;-61
2023/09/24 00:43:58;;;;;;;2.03;1.10;;;;;;;8.33;100.00;98020.78;5005712;28;20034;-61
2023/09/24 00:46:25;;;;;;;3.03;1.15;;;;;;;8.43;100.00;98031.09;4987713;28;20062;-61
2023/09/24 00:48:54;;;;;;;2.47;1.25;;;;;;;8.29;100.00;98029.56;5004168;28;20058;-60
2023/09/24 00:51:22;;;;;;;2.50;1.40;;;;;;;8.17;100.00;98024.88;5004421;28;20042;-60
2023/09/24 00:53:52;;;;;;;2.58;1.15;;;;;;;7.93;100.00;98031.91;5003057;28;20067;-60
2023/09/24 00:56:21;;;;;;;5.40;1.50;;;;;;;7.99;100.00;98030.22;5007203;28;20079;-61
2023/09/24 00:58:50;;;;;;;3.35;1.20;;;;;;;7.81;100.00;98018.28;5003666;28;20289;-61
2023/09/24 01:01:19;;;;;;;2.80;1.00;;;;;;;7.70;100.00;98025.19;5004720;28;20046;-61
2023/09/24 01:03:49;;;;;;;4.28;1.60;;;;;;;7.70;100.00;98024.41;5003178;28;20517;-61
2023/09/24 01:06:19;;;;;;;2.13;1.00;;;;;;;7.55;100.00;98030.91;4990466;28;20092;-62
2023/09/24 01:08:47;;;;;;;3.45;1.60;;;;;;;7.59;100.00;98032.13;4985446;28;20080;-60
2023/09/24 01:11:14;;;;;;;2.08;1.10;;;;;;;7.51;100.00;98032.38;5004754;28;20054;-61
2023/09/24 01:13:45;;;;;;;3.92;1.33;;;;;;;7.32;100.00;98037.66;4987270;28;20133;-61
2023/09/24 01:16:13;;;;;;;4.80;1.33;;;;;;;7.21;100.00;98039.16;5001533;28;20743;-61
2023/09/24 01:18:41;;;;;;;2.50;1.38;;;;;;;7.24;100.00;98045.97;4986879;28;20065;-62
2023/09/24 01:21:14;;;;;;;2.50;1.25;;;;;;;7.23;100.00;98047.03;4986316;28;20417;-60
2023/09/24 01:23:45;;;;;;;2.83;1.40;;;;;;;7.34;100.00;98046.31;4986894;28;20053;-61
2023/09/24 01:26:13;;;;;;;2.53;1.33;;;;;;;7.27;100.00;98042.84;5004559;28;20053;-61
2023/09/24 01:28:40;;;;;;;3.72;1.35;;;;;;;7.15;100.00;98048.91;4985811;28;20045;-61
2023/09/24 01:31:08;;;;;;;6.85;1.23;;;;;;;7.15;100.00;98040.81;4995624;28;20394;-61
2023/09/24 01:33:39;;;;;;;2.92;1.30;;;;;;;7.36;100.00;98052.34;4983405;28;20050;-62
2023/09/24 01:36:10;;;;;;;3.00;1.63;;;;;;;7.34;100.00;98043.63;5003233;28;20034;-62
2023/09/24 01:38:40;;;;;;;4.53;1.40;;;;;;;7.60;100.00;98036.47;4985481;28;20577;-62
2023/09/24 01:41:09;;;;;;;3.90;1.20;;;;;;;7.70;100.00;98038.69;5004051;28;20041;-62
2023/09/24 01:43:37;;;;;;;2.90;1.50;;;;;;;7.78;100.00;98035.72;5004510;28;20420;-61
2023/09/24 01:46:07;;;;;;;2.40;1.10;;;;;;;7.86;100.00;98039.22;5003938;28;20045;-61
2023/09/24 01:48:34;;;;;;;2.47;1.38;;;;;;;7.92;100.00;98033.78;5003636;28;20046;-62
2023/09/24 01:51:10;;;;;;;3.05;1.20;;;;;;;7.55;100.00;98037.13;4987697;28;20215;-62
2023/09/24 01:53:38;;;;;;;3.85;1.52;;;;;;;7.25;100.00;98040.38;5004654;28;20063;-62
2023/09/24 01:56:07;;;;;;;2.28;1.20;;;;;;;7.01;100.00;98044.63;5003609;28;20046;-62
2023/09/24 01:58:36;;;;;;;3.85;1.40;;;;;;;7.04;100.00;98046.84;5004150;28;20074;-61
2023/09/24 02:01:04;;;;;;;6.70;1.90;;;;;;;6.99;100.00;98054.75;4990907;28;20050;-61
2023/09/24 02:03:31;;;;;;;4.38;1.70;;;;;;;6.85;100.00;98059.34;4987978;28;20472;-64
2023/09/24 02:05:57;;;;;;;3.40;1.40;;;;;;;6.82;100.00;98065.16;4986973;28;20065;-63
2023/09/24 02:08:24;;;;;;;5.55;1.60;;;;;;;6.81;100.00;98071.59;5003794;28;20053;-64
2023/09/24 02:10:51;;;;;;;3.42;1.40;;;;;;;6.80;100.00;98067.22;5000460;28;20041;-63
2023/09/24 02:13:20;;;;;;;3.40;1.50;;;;;;;6.76;100.00;98078.44;5002502;28;20056;-63
2023/09/24 02:15:48;;;;;;;3.08;1.50;;;;;;;6.73;100.00;98083.38;5003136;28;20042;-64
2023/09/24 02:18:18;;;;;;;4.13;1.45;;;;;;;6.68;100.00;98077.81;5003007;28;20042;-64
2023/09/24 02:20:47;;;;;;;4.55;1.90;;;;;;;6.75;100.00;98078.63;5003222;28;20572;-63
2023/09/24 02:23:14;;;;;;;4.05;1.50;;;;;;;6.75;100.00;98070.56;5001147;28;20049;-64
2023/09/24 02:25:45;;;;;;;9.00;2.03;;;;;;;6.68;100.00;98084.03;5003022;28;20409;-63
2023/09/24 02:28:13;;;;;;;4.90;1.90;;;;;;;6.74;100.00;98091.25;4985440;28;20132;-64
2023/09/24 02:30:40;;;;;;;4.63;1.73;;;;;;;6.78;100.00;98090.84;4985467;28;20049;-62
2023/09/24 02:33:07;;;;;;;6.05;1.60;;;;;;;6.85;100.00;98088.94;4986069;28;20501;-63
2023/09/24 02:35:35;;;;;;;4.85;1.60;;;;;;;6.89;100.00;98085.63;5003105;28;20074;-63
2023/09/24 02:38:02;;;;;;;6.00;1.58;;;;;;;6.93;100.00;98079.84;4989558;28;20046;-64
2023/09/24 02:40:30;;;;;;;4.32;1.50;;;;;;;6.92;100.00;98073.63;5001697;28;20050;-64
2023/09/24 02:42:58;;;;;;;5.95;1.40;;;;;;;7.03;100.00;98077.53;5003823;28;20412;-63
2023/09/24 02:45:26;;;;;;;7.18;1.40;;;;;;;7.10;100.00;98077.50;4990330;28;20054;-64
2023/09/24 02:47:53;;;;;;;3.40;1.30;;;;;;;7.10;100.00;98075.66;4986678;28;20493;-64
2023/09/24 02:50:25;;;;;;;5.60;1.50;;;;;;;7.10;100.00;98074.81;5006748;28;20096;-63
2023/09/24 02:52:56;;;;;;;4.65;1.45;;;;;;;7.09;100.00;98079.38;5005712;28;20131;-62
2023/09/24 02:55:26;;;;;;;3.63;1.42;;;;;;;7.08;100.00;98076.91;4989368;28;20072;-63
2023/09/24 02:57:53;;;;;;;3.65;1.80;;;;;;;7.17;100.00;98081.00;5004749;28;20054;-64
2023/09/24 03:00:26;;;;;;;4.40;1.40;;;;;;;7.04;100.00;98068.41;5007677;28;20056;-64
2023/09/24 03:02:59;;;;;;;5.50;1.45;;;;;;;6.90;100.00;98084.59;4988176;28;20046;-63
2023/09/24 03:05:28;;;;;;;3.53;1.40;;;;;;;6.98;100.00;98078.19;5006711;28;20509;-63
2023/09/24 03:07:57;;;;;;;4.00;1.40;;;;;;;6.91;100.00;98090.81;4988197;28;20119;-64
2023/09/24 03:10:24;;;;;;;3.20;1.38;;;;;;;6.83;100.00;98085.66;5006644;28;20639;-64
2023/09/24 03:12:51;;;;;;;2.65;1.13;;;;;;;6.70;100.00;98087.31;5003356;28;20049;-64
2023/09/24 03:15:18;;;;;;;1.73;1.10;;;;;;;6.83;100.00;98089.19;4988323;28;20093;-64
2023/09/24 03:17:47;;;;;;;3.97;1.40;;;;;;;6.83;100.00;98099.13;5005048;28;20037;-64
2023/09/24 03:20:16;;;;;;;4.57;1.30;;;;;;;6.89;100.00;98095.56;5002074;28;20096;-63
2023/09/24 03:22:51;;;;;;;8.27;1.73;;;;;;;6.85;100.00;98097.03;4988127;28;20735;-63
2023/09/24 03:25:24;;;;;;;4.10;1.90;;;;;;;6.85;100.00;98103.25;5006737;28;20056;-63
2023/09/24 03:27:56;;;;;;;3.58;1.20;;;;;;;6.81;100.00;98110.09;4987825;28;20038;-64
2023/09/24 03:30:24;;;;;;;4.22;1.50;;;;;;;6.73;100.00;98111.13;5005164;28;20440;-64
2023/09/24 03:32:53;;;;;;;4.13;1.33;;;;;;;6.73;100.00;98119.22;4984070;28;20038;-63
2023/09/24 03:35:23;;;;;;;3.30;1.73;;;;;;;6.64;100.00;98110.50;5006384;28;20104;-63
2023/09/24 03:37:50;;;;;;;3.08;1.40;;;;;;;6.60;100.00;98125.41;4990266;28;20503;-64
2023/09/24 03:40:19;;;;;;;3.33;1.75;;;;;;;6.61;100.00;98127.09;4986487;28;20045;-62
2023/09/24 03:42:47;;;;;;;4.38;2.00;;;;;;;6.64;100.00;98133.94;5007330;28;20539;-64
2023/09/24 03:45:15;;;;;;;5.05;1.50;;;;;;;6.72;100.00;98135.56;5006252;28;20053;-63
2023/09/24 03:47:43;;;;;;;3.75;1.60;;;;;;;6.80;100.00;98134.53;5004720;28;20042;-63
2023/09/24 03:50:16;;;;;;;4.53;1.60;;;;;;;6.92;100.00;98132.03;5006015;28;20046;-63
2023/09/24 03:52:45;;;;;;;3.80;1.40;;;;;;;6.94;100.00;98121.88;5004013;28;20073;-64
2023/09/24 03:55:13;;;;;;;2.85;1.40;;;;;;;7.09;100.00;98124.31;5002670;28;20116;-64
2023/09/24 03:57:40;;;;;;;3.53;1.67;;;;;;;6.91;100.00;98117.75;4988323;28;20521;-64
2023/09/24 04:00:18;;;;;;;5.22;1.70;;;;;;;6.83;100.00;98123.34;4987249;28;20056;-64
2023/09/24 04:02:47;;;;;;;6.43;1.42;;;;;;;6.74;100.00;98123.56;4992665;28;20072;-62
2023/09/24 04:05:18;;;;;;;2.97;1.67;;;;;;;6.48;100.00;98137.84;4999535;28;20076;-62
2023/09/24 04:07:46;;;;;;;4.75;1.23;;;;;;;6.32;100.00;98145.28;5003883;28;20106;-63
2023/09/24 04:10:14;;;;;;;5.22;1.55;;;;;;;6.20;100.00;98165.75;5000003;28;20050;-63
2023/09/24 04:12:46;;;;;;;3.83;1.63;;;;;;;6.11;100.00;98176.69;5005380;28;20393;-62
2023/09/24 04:15:15;;;;;;;3.08;1.60;;;;;;;5.99;100.00;98184.50;5000628;28;20054;-62
2023/09/24 04:17:42;;;;;;;4.30;1.50;;;;;;;6.01;100.00;98186.16;5004513;28;20038;-64
2023/09/24 04:20:15;;;;;;;3.78;1.45;;;;;;;6.02;100.00;98185.09;5005035;28;20116;-63
2023/09/24 04:22:44;;;;;;;4.13;1.70;;;;;;;5.97;100.00;98185.72;5010503;28;20049;-63
2023/09/24 04:25:14;;;;;;;3.80;1.63;;;;;;;5.96;100.00;98186.75;5005205;28;20116;-63
2023/09/24 04:27:44;;;;;;;3.75;1.70;;;;;;;5.93;100.00;98181.78;5004434;28;20127;-64
2023/09/24 04:30:15;;;;;;;2.67;1.45;;;;;;;5.88;100.00;98184.22;5004878;28;20541;-63
2023/09/24 04:32:42;;;;;;;3.35;1.45;;;;;;;5.82;100.00;98186.69;5004963;28;20042;-62
2023/09/24 04:35:12;;;;;;;3.78;1.80;;;;;;;5.78;100.00;98188.13;5004743;28;20131;-63
2023/09/24 04:37:41;;;;;;;3.60;1.33;;;;;;;5.79;100.00;98194.34;5005349;28;20038;-63
2023/09/24 04:40:11;;;;;;;3.40;1.52;;;;;;;5.77;100.00;98196.38;5003781;28;20049;-62
2023/09/24 04:42:37;;;;;;;3.25;1.55;;;;;;;5.77;100.00;98201.75;5006524;28;20060;-64
2023/09/24 04:45:06;;;;;;;3.25;1.67;;;;;;;5.78;100.00;98206.94;5004079;28;20042;-66
2023/09/24 04:47:33;;;;;;;3.83;1.60;;;;;;;5.77;100.00;98205.28;5005119;28;20039;-65
2023/09/24 04:49:59;;;;;;;3.80;1.80;;;;;;;5.81;100.00;98195.78;5004398;28;20104;-63
2023/09/24 04:52:26;;;;;;;3.33;1.33;;;;;;;5.73;100.00;98198.66;5003968;28;20038;-64
2023/09/24 04:54:53;;;;;;;3.55;1.67;;;;;;;5.67;100.00;98202.13;5004544;28;20481;-65
2023/09/24 04:57:20;;;;;;;3.35;1.55;;;;;;;5.63;100.00;98209.75;5004144;28;20544;-63
2023/09/24 04:59:47;;;;;;;3.83;1.60;;;;;;;5.79;100.00;98219.34;4987770;28;20643;-65
2023/09/24 05:02:13;;;;;;;3.10;1.33;;;;;;;5.75;100.00;98210.03;4995451;28;20058;-65
2023/09/24 05:04:40;;;;;;;5.43;1.48;;;;;;;5.69;100.00;98213.50;5004162;28;20505;-63
2023/09/24 05:07:06;;;;;;;2.45;1.25;;;;;;;5.70;100.00;98216.00;5002383;28;20049;-66
2023/09/24 05:09:33;;;;;;;3.15;1.20;;;;;;;5.67;100.00;98218.25;5002907;28;20054;-64
2023/09/24 05:11:59;;;;;;;3.35;1.50;;;;;;;5.75;100.00;98218.09;5001878;28;20045;-65
2023/09/24 05:14:26;;;;;;;3.10;1.55;;;;;;;5.75;100.00;98220.78;5001755;28;20108;-64
2023/09/24 05:16:53;;;;;;;5.20;1.60;;;;;;;5.71;100.00;98223.03;5004893;28;20092;-65
2023/09/24 05:19:19;;;;;;;3.45;1.60;;;;;;;5.64;100.00;98221.34;5003225;28;20129;-65
2023/09/24 05:21:46;;;;;;;2.60;1.38;;;;;;;5.66;100.00;98233.56;5004769;28;20509;-65
2023/09/24 05:24:13;;;;;;;2.10;1.27;;;;;;;5.70;100.00;98234.81;4999732;28;20545;-66
2023/09/24 05:26:40;;;;;;;3.17;1.38;;;;;;;5.72;100.00;98242.69;5002732;28;20564;-64
2023/09/24 05:29:06;;;;;;;3.40;1.60;;;;;;;5.80;100.00;98247.91;5002242;28;20034;-64
2023/09/24 05:31:33;;;;;;;2.55;1.38;;;;;;;5.82;100.00;98245.00;5006454;28;20057;-67
2023/09/24 05:34:01;;;;;;;4.47;1.48;;;;;;;5.88;100.00;98249.56;5001782;28;20049;-64
2023/09/24 05:36:28;;;;;;;5.07;1.65;;;;;;;5.85;100.00;98245.44;5003029;28;20054;-64
2023/09/24 05:38:54;;;;;;;3.17;1.40;;;;;;;5.86;100.00;98246.25;5001875;28;20038;-65
2023/09/24 05:41:21;;;;;;;3.22;1.50;;;;;;;5.96;100.00;98259.31;5002871;28;20054;-64
2023/09/24 05:43:48;;;;;;;3.55;1.60;;;;;;;6.04;100.00;98253.00;5003981;28;20056;-66
2023/09/24 05:46:15;;;;;;;3.90;2.13;;;;;;;6.09;100.00;98245.97;4997248;28;20129;-64
2023/09/24 05:48:42;;;;;;;7.38;1.90;;;;;;;6.10;100.00;98257.56;5002210;28;20042;-65
2023/09/24 05:51:09;;;;;;;3.92;1.63;;;;;;;6.14;100.00;98260.66;5002067;28;20045;-64
2023/09/24 05:53:35;;;;;;;4.57;1.90;;;;;;;6.20;100.00;98251.81;5001735;28;20064;-67
2023/09/24 05:56:03;;;;;;;4.88;1.70;;;;;;;6.23;100.00;98254.91;5002157;28;20120;-65
2023/09/24 05:58:30;;;;;;;3.30;1.77;;;;;;;6.28;100.00;98251.63;5001733;28;20050;-67
2023/09/24 06:00:56;;;;;;;3.92;2.15;;;;;;;6.25;100.00;98249.34;4998984;28;20042;-63
2023/09/24 06:03:23;;;;;;;3.78;2.10;;;;;;;6.34;100.00;98256.19;5001883;28;20078;-66
2023/09/24 06:05:50;;;;;;;2.60;1.75;;;;;;;6.39;100.00;98260.97;5000623;28;20041;-66
2023/09/24 06:08:17;;;;;;;4.22;1.92;;;;;;;6.48;100.00;98270.50;5001239;28;20475;-64
2023/09/24 06:10:45;;;;;;;5.22;1.90;;;;;;;6.51;100.00;98274.66;5001580;28;20054;-64
2023/09/24 06:13:15;;;;;;;4.20;2.05;;;;;;;6.60;100.00;98289.56;4982401;28;20778;-64
2023/09/24 06:15:43;;;;;;;5.43;2.10;;;;;;;6.64;100.00;98282.75;5001222;28;20049;-64
2023/09/24 06:18:10;;;;;;;6.20;2.10;;;;;;;6.73;100.00;98283.41;5000190;28;20034;-63
2023/09/24 06:20:38;;;;;;;6.22;2.47;;;;;;;6.83;100.00;98277.63;5001601;28;20081;-64
2023/09/24 06:23:06;;;;;;;5.35;2.53;;;;;;;6.93;100.00;98281.78;5000844;28;20069;-63
2023/09/24 06:25:33;;;;;;;4.75;2.33;;;;;;;7.02;100.00;98284.06;5001582;28;20049;-63
2023/09/24 06:28:00;;;;;;;5.75;2.47;;;;;;;7.14;100.00;98286.97;5001267;28;20030;-64
2023/09/24 06:30:26;;;;;;;4.32;2.50;;;;;;;7.24;100.00;98289.25;5001830;28;20390;-65
2023/09/24 06:32:53;;;;;;;4.28;2.22;;;;;;;7.38;100.00;98284.66;5000816;28;20046;-65
2023/09/24 06:35:20;;;;;;;5.20;2.30;;;;;;;7.51;100.00;98275.75;4996983;28;20053;-64
2023/09/24 06:37:46;;;;;;;4.10;1.80;;;;;;;7.61;100.00;98277.16;5000846;28;20070;-65
2023/09/24 06:40:13;;;;;;;4.43;2.20;;;;;;;7.73;100.00;98274.66;5001219;28;20160;-64
2023/09/24 06:42:39;;;;;;;5.03;2.28;;;;;;;7.84;100.00;98282.09;5005505;28;20116;-66
2023/09/24 06:45:09;;;;;;;8.95;2.20;;;;;;;7.94;100.00;98274.41;5003448;28;20042;-63
2023/09/24 06:47:36;;;;;;;3.50;1.70;;;;;;;8.04;100.00;98275.81;5003710;28;20042;-66
2023/09/24 06:50:03;;;;;;;5.00;1.92;;;;;;;8.14;100.00;98269.97;5003178;28;20766;-64
2023/09/24 06:52:31;;;;;;;6.63;2.13;;;;;;;8.26;100.00;98259.34;5003793;28;20050;-64
2023/09/24 06:54:58;;;;;;;4.70;2.10;;;;;;;8.38;100.00;98254.06;5001514;28;20390;-65
2023/09/24 06:57:24;;;;;;;4.63;1.88;;;;;;;8.51;100.00;98258.59;5003069;28;20108;-66
2023/09/24 06:59:51;;;;;;;4.20;1.70;;;;;;;8.63;100.00;98262.28;5002266;28;20052;-66
2023/09/24 07:02:17;;;;;;;4.25;1.92;;;;;;;8.75;100.00;98253.47;5002490;28;20058;-64
2023/09/24 07:04:44;;;;;;;3.63;1.65;;;;;;;8.88;100.00;98260.66;5003767;28;20129;-65
2023/09/24 07:07:11;;;;;;;4.70;1.90;;;;;;;9.02;100.00;98261.38;5003135;28;20060;-65
2023/09/24 07:09:37;;;;;;;4.25;1.80;;;;;;;9.19;100.00;98267.06;5003608;28;20119;-65
2023/09/24 07:12:04;;;;;;;3.03;1.73;;;;;;;9.31;100.00;98268.00;5002667;28;20100;-64
2023/09/24 07:14:31;;;;;;;5.78;1.98;;;;;;;9.52;100.00;98270.50;5003159;28;20050;-66
2023/09/24 07:16:57;;;;;;;4.35;1.50;;;;;;;9.66;100.00;98263.09;5002410;28;20038;-64
2023/09/24 07:19:24;;;;;;;3.42;1.55;;;;;;;9.79;100.00;98268.38;5003472;28;20046;-64
2023/09/24 07:21:52;;;;;;;3.97;1.50;;;;;;;9.95;100.00;98268.84;5002291;28;20041;-64
2023/09/24 07:24:19;;;;;;;3.05;1.33;;;;;;;10.08;100.00;98271.38;5001038;28;20828;-64
2023/09/24 07:26:45;;;;;;;5.95;1.70;;;;;;;10.24;100.00;98272.63;5006249;28;20049;-65
2023/09/24 07:29:12;;;;;;;3.33;1.38;;;;;;;10.37;100.00;98268.09;5001285;28;20410;-66
2023/09/24 07:31:38;;;;;;;3.33;1.45;;;;;;;10.47;100.00;98271.13;5003072;28;20048;-64
2023/09/24 07:34:05;;;;;;;3.28;1.38;;;;;;;10.57;100.00;98267.88;5004142;28;20053;-63
2023/09/24 07:36:32;;;;;;;3.05;1.40;;;;;;;10.67;100.00;98267.31;5005261;28;20049;-65
2023/09/24 07:39:10;;;;;;;6.28;1.48;;;;;;;10.84;100.00;98266.66;5003274;28;20513;-65
2023/09/24 07:41:37;;;;;;;4.03;1.33;;;;;;;10.97;100.00;98271.88;5008304;28;20057;-66
2023/09/24 07:44:04;;;;;;;4.85;1.67;;;;;;;11.11;100.00;98263.53;5003311;28;20834;-64
2023/09/24 07:46:30;;;;;;;2.63;1.38;;;;;;;11.19;100.00;98274.03;5004539;28;20057;-66
2023/09/24 07:48:57;;;;;;;3.75;1.40;;;;;;;11.26;100.00;98274.75;5003354;28;20042;-64
2023/09/24 07:51:23;;;;;;;2.08;1.00;;;;;;;11.30;100.00;98270.50;5006060;28;20073;-65
2023/09/24 07:53:50;;;;;;;1.88;0.90;;;;;;;11.39;100.00;98273.69;5005261;28;20041;-65
2023/09/24 07:56:17;;;;;;;9.30;1.92;;;;;;;11.48;100.00;98274.19;5006396;28;20128;-65
2023/09/24 07:58:44;;;;;;;5.75;1.20;;;;;;;11.60;100.00;98270.66;5003733;28;20041;-64
2023/09/24 08:01:13;;;;;;;4.03;1.05;;;;;;;11.67;100.00;98283.03;5003643;28;20042;-66
2023/09/24 08:03:45;;;;;;;2.25;0.90;;;;;;;11.74;100.00;98274.75;5004749;28;20049;-64
2023/09/24 08:06:12;;;;;;;2.83;1.20;;;;;;;11.83;100.00;98269.78;5003641;28;20038;-66
2023/09/24 08:08:39;;;;;;;4.35;1.33;;;;;;;11.97;100.00;98275.78;5004748;28;20684;-64
2023/09/24 08:11:21;;;;;;;2.30;0.93;;;;;;;12.05;100.00;98280.03;4998658;28;20045;-66
2023/09/24 08:13:48;;;;;;;3.80;1.23;;;;;;;12.32;100.00;98284.94;5003399;28;20038;-65
2023/09/24 08:16:19;;;;;;;5.60;1.50;;;;;;;12.47;98.71;98281.72;5003377;28;20124;-65
2023/09/24 08:18:46;;;;;;;2.25;1.23;;;;;;;12.59;97.05;98279.78;5004827;28;20184;-65
2023/09/24 08:21:14;;;;;;;9.65;1.13;;;;;;;12.68;93.90;98276.66;5004796;28;20112;-64
2023/09/24 08:23:40;;;;;;;3.95;1.38;;;;;;;12.74;94.70;98276.50;5005074;28;20069;-63
2023/09/24 08:26:07;;;;;;;2.90;0.98;;;;;;;12.81;93.94;98278.25;5004976;28;20054;-64
2023/09/24 08:28:34;;;;;;;3.75;1.00;;;;;;;12.88;90.38;98282.47;5004915;28;20040;-64
2023/09/24 08:31:08;;;;;;;4.32;1.20;;;;;;;12.92;90.25;98282.81;5004107;28;20042;-65
2023/09/24 08:33:34;;;;;;;5.35;1.23;;;;;;;12.98;91.49;98281.00;5006932;28;20049;-66
2023/09/24 08:36:01;;;;;;;3.75;1.08;;;;;;;13.06;92.29;98275.16;5004903;28;20617;-65
2023/09/24 08:38:27;;;;;;;3.50;1.25;;;;;;;13.11;91.91;98280.69;5002605;28;20049;-64
2023/09/24 08:40:54;;;;;;;5.85;2.25;;;;;;;13.18;91.15;98283.22;5003468;28;20061;-65
2023/09/24 08:43:27;;;;;;;3.70;1.00;;;;;;;13.24;91.33;98289.59;5003609;28;20037;-64
2023/09/24 08:45:54;;;;;;;3.92;0.95;;;;;;;13.25;90.30;98297.50;5001593;28;20038;-65
2023/09/24 08:48:21;;;;;;;4.03;1.10;;;;;;;13.32;89.95;98293.78;5003386;28;20052;-67
2023/09/24 08:50:48;;;;;;;2.95;1.08;;;;;;;13.44;88.55;98290.97;5002349;28;20073;-65
2023/09/24 08:53:16;;;;;;;3.90;1.00;;;;;;;13.52;85.98;98285.16;5002177;28;20168;-65
2023/09/24 08:55:43;;;;;;;4.28;1.20;;;;;;;13.60;86.10;98283.91;5003368;28;20048;-65
2023/09/24 08:58:11;;;;;;;5.07;1.27;;;;;;;13.63;84.17;98283.41;5002153;28;20042;-65
2023/09/24 09:00:39;;;;;;;3.00;1.00;;;;;;;13.63;81.63;98283.41;5002572;28;20050;-66
2023/09/24 09:03:05;;;;;;;3.17;1.10;;;;;;;13.70;80.28;98278.63;5002362;28;20041;-66
2023/09/24 09:05:36;;;;;;;4.07;1.05;;;;;;;13.79;79.75;98271.66;5002338;28;20103;-65
2023/09/24 09:08:04;;;;;;;4.57;1.45;;;;;;;13.79;78.36;98277.09;5001902;28;20049;-65
2023/09/24 09:10:35;;;;;;;2.10;0.98;;;;;;;13.86;78.50;98268.75;5002329;28;20053;-66
2023/09/24 09:13:04;;;;;;;5.07;1.40;;;;;;;13.96;76.33;98267.28;5009615;28;20050;-63
2023/09/24 09:15:32;;;;;;;7.15;1.38;;;;;;;13.97;76.18;98269.72;5004323;28;20654;-64
2023/09/24 09:18:00;;;;;;;5.55;1.30;;;;;;;14.01;74.77;98264.63;5003310;28;20104;-65
2023/09/24 09:20:47;;;;;;;3.05;1.00;;;;;;;14.07;76.48;98270.94;5004026;28;20140;-65
2023/09/24 09:23:16;;;;;;;5.25;1.25;;;;;;;14.10;75.53;98270.41;5003559;28;20041;-66
2023/09/24 09:25:48;;;;;;;4.80;1.45;;;;;;;14.15;74.42;98276.75;5004539;28;20046;-65
2023/09/24 09:28:26;;;;;;;3.88;1.25;;;;;;;14.22;72.25;98268.41;5004134;28;20042;-66
2023/09/24 09:31:10;;;;;;;2.08;0.80;;;;;;;14.26;72.91;98268.75;5003082;28;20051;-64
2023/09/24 09:33:41;;;;;;;3.80;1.33;;;;;;;14.27;71.94;98273.91;5003930;28;20066;-66
2023/09/24 09:36:22;;;;;;;;;;;;;;;14.33;73.52;98269.34;5004462;28;20634;-63
2023/09/24 09:38:52;;;;;;;3.17;1.00;;;;;;;14.34;72.84;98262.81;5008501;28;19921;-65
2023/09/24 09:41:19;;;;;;;2.55;1.13;;;;;;;14.38;73.22;98265.88;4998683;28;20061;-66
2023/09/24 09:43:47;;;;;;;3.92;1.85;;;;;;;14.42;73.55;98270.53;5005811;28;20068;-66
2023/09/24 09:46:18;;;;;;;4.35;1.25;;;;;;;14.48;71.75;98265.16;5003526;28;20085;-64
2023/09/24 09:48:52;;;;;;;6.50;1.38;;;;;;;14.45;73.50;98269.22;5003684;28;20042;-66
2023/09/24 09:51:20;;;;;;;4.88;1.23;;;;;;;14.49;69.10;98266.81;5002077;28;20053;-67
2023/09/24 09:53:47;;;;;;;5.50;1.27;;;;;;;14.62;70.06;98273.75;5001267;28;20073;-66
2023/09/24 09:56:14;;;;;;;3.50;1.35;;;;;;;14.65;70.47;98263.16;5002449;28;20542;-62
2023/09/24 09:58:43;;;;;;;4.85;1.00;;;;;;;14.73;67.90;98271.94;5001103;28;20088;-64
2023/09/24 10:01:09;;;;;;;3.22;0.95;;;;;;;14.75;69.46;98267.06;5004887;28;20104;-63
2023/09/24 10:03:39;;;;;;;3.33;1.30;;;;;;;14.75;69.52;98272.53;5002028;28;20037;-64
2023/09/24 10:06:09;;;;;;;6.05;1.45;;;;;;;14.78;69.51;98269.31;4995174;28;20075;-63
2023/09/24 10:08:41;;;;;;;5.70;1.25;;;;;;;14.74;67.16;98265.44;5002979;28;20811;-64
2023/09/24 10:11:09;;;;;;;3.30;1.20;;;;;;;14.76;68.39;98266.84;5001211;28;20068;-64
2023/09/24 10:13:46;;;;;;;;;;;;;;;14.83;67.76;98264.72;5002186;28;20127;-62
2023/09/24 10:16:25;;;;;;;;;;;;;;;14.77;66.15;98268.50;5001302;28;20552;-64
2023/09/24 10:18:55;;;;;;;;;;;;;;;14.76;67.10;98263.25;5001568;28;20594;-63
2023/09/24 10:21:33;;;;;;;3.47;1.10;;;;;;;14.97;68.08;98274.41;4996021;28;19922;-66
2023/09/24 10:24:20;;;;;;;3.45;1.05;;;;;;;15.08;67.22;98266.03;5000231;28;20045;-64
2023/09/24 10:26:48;;;;;;;3.42;1.30;;;;;;;15.04;68.91;98266.84;5001337;28;20054;-65
2023/09/24 10:29:19;;;;;;;5.35;1.15;;;;;;;15.08;67.01;98265.22;5000866;28;20108;-63
2023/09/24 10:32:08;;;;;;;3.03;1.08;;;;;;;15.11;66.58;98261.97;5000586;28;20080;-64
2023/09/24 10:34:53;;;;;;;4.78;1.60;;;;;;;15.42;67.19;98254.03;5001464;28;20050;-65
2023/09/24 10:37:34;;;;;;;5.53;1.65;;;;;;;15.45;67.96;98258.16;5001665;28;20049;-66
2023/09/24 10:40:09;;;;;;;4.40;1.60;;;;;;;15.62;67.74;98257.16;5000324;28;20050;-63
2023/09/24 10:42:42;;;;;;;5.97;1.45;;;;;;;15.57;67.53;98250.59;5004069;28;20045;-64
2023/09/24 10:45:23;;;;;;;3.17;1.50;;;;;;;15.42;67.54;98245.03;4998158;28;20065;-61
2023/09/24 10:47:50;;;;;;;3.33;1.00;;;;;;;15.54;67.96;98244.81;5001745;28;20050;-63
2023/09/24 10:50:23;;;;;;;3.80;1.30;;;;;;;15.61;67.98;98239.97;5000903;28;20053;-63
2023/09/24 10:52:59;;;;;;;5.63;1.27;;;;;;;15.56;68.08;98248.94;5000046;28;20038;-64
2023/09/24 10:55:29;;;;;;;3.03;1.17;;;;;;;15.67;67.48;98255.28;5002635;28;20050;-63
2023/09/24 10:57:57;;;;;;;3.28;1.20;;;;;;;15.88;66.03;98244.47;5002708;28;20539;-64
2023/09/24 11:00:25;;;;;;;2.95;1.10;;;;;;;16.10;65.33;98244.34;5003428;28;20034;-64
2023/09/24 11:02:58;;;;;;;;;;;;;;;16.23;64.81;98240.31;4985381;28;20121;-63
2023/09/24 11:05:25;;;;;;;4.20;1.60;;;;;;;16.37;62.71;98242.53;4984644;28;19979;-63
2023/09/24 11:07:55;;;;;;;;;;;;;;;16.39;61.42;98254.00;5006966;28;20053;-65
2023/09/24 11:10:25;;;;;;;7.85;1.50;;;;;;;16.25;58.48;98249.03;4999732;28;19925;-63
2023/09/24 11:13:00;;;;;;;3.13;1.33;;;;;;;16.21;57.98;98242.47;5006796;28;20065;-63
2023/09/24 11:15:33;;;;;;;3.58;1.50;;;;;;;16.23;59.24;98237.56;5005166;28;20544;-63
2023/09/24 11:18:00;;;;;;;3.67;1.27;;;;;;;16.32;57.51;98245.22;5004975;28;20049;-62
2023/09/24 11:20:34;;;;;;;3.17;1.45;;;;;;;16.34;57.94;98232.97;5009573;28;20050;-62
2023/09/24 11:23:09;;;;;;;6.07;1.13;;;;;;;16.29;57.85;98235.66;5003521;28;20041;-62
2023/09/24 11:25:37;;;;;;;3.60;1.20;;;;;;;16.36;56.83;98236.22;5005107;28;20413;-63
2023/09/24 11:28:04;;;;;;;6.88;1.10;;;;;;;16.27;54.00;98229.66;5003425;28;20057;-63
2023/09/24 11:30:51;;;;;;;2.33;0.90;;;;;;;16.35;54.99;98226.41;5005055;28;20531;-62
2023/09/24 11:33:20;;;;;;;2.50;0.93;;;;;;;16.46;56.75;98220.94;4981335;28;20050;-63
2023/09/24 11:35:50;;;;;;;3.92;1.20;;;;;;;16.43;55.31;98218.78;4977388;28;20096;-65
2023/09/24 11:38:35;;;;;;;3.08;0.90;;;;;;;16.36;53.42;98221.72;4997122;28;20087;-65
2023/09/24 11:41:14;;;;;;;2.35;0.98;;;;;;;16.21;52.62;98223.34;4991699;28;20042;-62
2023/09/24 11:43:41;;;;;;;4.80;1.20;;;;;;;16.33;52.79;98220.34;5009398;28;20117;-64